Time;durP1;ratioP1;P1;durP2;ratioP2;P2;SDS_P1;SDS_P2;PMS_P1;PMS_P2;Temp;Humidity;BMP_temperature;BMP_pressure;BME280_temperature;BME280_humidity;BME280_pressure;Samples;Min_cycle;Max_cycle;Signal;HPM_P1;HPM_P2
2024/03/24 00:00:07;;;;;;;9.10;8.20;;;;;;;14.09;98.02;98360.26;104429;1259;74583;-63
2024/03/24 00:02:39;;;;;;;9.60;8.70;;;;;;;14.09;98.52;98353.98;104698;1260;69254;-64
2024/03/24 00:05:07;;;;;;;12.40;8.90;;;;;;;14.02;99.35;98358.56;105334;1257;71477;-65
2024/03/24 00:07:35;;;;;;;10.30;8.20;;;;;;;13.83;100.00;98358.70;105204;1253;63639;-65
2024/03/24 00:10:02;;;;;;;11.40;9.50;;;;;;;13.84;100.00;98350.75;104687;1257;61260;-64
2024/03/24 00:12:32;;;;;;;10.90;9.30;;;;;;;13.86;100.00;98344.81;104478;1257;74490;-65
2024/03/24 00:15:00;;;;;;;11.70;10.10;;;;;;;13.86;100.00;98339.33;104775;1256;69657;-64
2024/03/24 00:17:27;;;;;;;10.20;9.20;;;;;;;13.69;100.00;98333.23;104700;1256;72902;-66
2024/03/24 00:19:55;;;;;;;9.20;8.30;;;;;;;13.59;100.00;98327.27;104574;1259;62389;-64
2024/03/24 00:22:22;;;;;;;10.40;9.10;;;;;;;13.58;100.00;98327.37;104751;1260;61404;-63
2024/03/24 00:24:50;;;;;;;10.60;9.60;;;;;;;13.57;100.00;98326.05;104602;1253;75094;-63
2024/03/24 00:27:18;;;;;;;11.40;9.50;;;;;;;13.66;100.00;98326.61;104554;1270;69286;-63
2024/03/24 00:29:46;;;;;;;10.40;9.20;;;;;;;13.66;100.00;98320.95;104487;1257;72611;-63
2024/03/24 00:32:13;;;;;;;10.70;9.60;;;;;;;13.76;100.00;98316.49;104760;1256;61812;-64
2024/03/24 00:34:40;;;;;;;11.20;9.90;;;;;;;13.75;100.00;98317.41;104553;1257;61365;-65
2024/03/24 00:37:08;;;;;;;13.20;9.90;;;;;;;13.70;100.00;98313.08;104598;1257;74380;-64
2024/03/24 00:39:35;;;;;;;9.70;8.60;;;;;;;13.67;100.00;98307.54;104355;1257;70240;-64
2024/03/24 00:42:04;;;;;;;9.80;8.90;;;;;;;13.64;100.00;98304.21;104885;1257;72504;-64
2024/03/24 00:44:31;;;;;;;9.90;8.90;;;;;;;13.61;100.00;98300.52;104967;1264;61842;-64
2024/03/24 00:46:58;;;;;;;9.70;8.80;;;;;;;13.57;100.00;98296.83;104340;1260;61601;-64
2024/03/24 00:49:28;;;;;;;10.20;9.20;;;;;;;13.49;100.00;98292.82;104445;1275;74389;-64
2024/03/24 00:51:56;;;;;;;10.80;8.80;;;;;;;13.38;100.00;98297.88;104358;1261;70178;-64
2024/03/24 00:54:25;;;;;;;10.20;9.20;;;;;;;13.27;100.00;98294.47;104505;1260;72645;-63
2024/03/24 00:56:53;;;;;;;10.50;8.80;;;;;;;13.23;100.00;98294.77;104348;1254;61779;-64
2024/03/24 00:59:20;;;;;;;10.60;9.40;;;;;;;13.20;100.00;98289.89;105035;1259;61237;-62
2024/03/24 01:01:48;;;;;;;10.80;9.70;;;;;;;13.15;100.00;98287.98;104868;1259;74506;-64
2024/03/24 01:04:15;;;;;;;10.90;9.20;;;;;;;13.10;100.00;98285.69;104322;1259;69317;-63
2024/03/24 01:06:43;;;;;;;11.30;8.20;;;;;;;13.14;100.00;98282.94;104267;1258;72938;-63
2024/03/24 01:09:13;;;;;;;10.30;9.30;;;;;;;13.09;100.00;98282.13;104812;1258;61585;-63
2024/03/24 01:11:41;;;;;;;10.00;9.10;;;;;;;13.10;100.00;98289.10;104566;1259;61344;-63
2024/03/24 01:14:08;;;;;;;10.10;9.10;;;;;;;13.08;100.00;98290.27;104450;1269;75325;-63
2024/03/24 01:16:36;;;;;;;10.40;9.30;;;;;;;13.07;100.00;98286.99;104665;1260;69736;-63
2024/03/24 01:19:03;;;;;;;9.40;8.50;;;;;;;13.07;100.00;98288.25;104375;1258;73004;-63
2024/03/24 06:01:37;;;;;;;15.90;12.90;;;;;;;11.27;100.00;98199.08;101042;1295;601972;-62
2024/03/24 06:04:05;;;;;;;14.60;13.10;;;;;;;11.22;100.00;98197.34;103747;1268;61024;-62
2024/03/24 06:06:33;;;;;;;15.10;13.30;;;;;;;11.27;100.00;98202.64;103626;1268;59718;-66
2024/03/24 06:09:00;;;;;;;16.90;13.10;;;;;;;11.22;100.00;98199.83;103659;1268;72836;-62
2024/03/24 06:11:28;;;;;;;18.70;14.00;;;;;;;11.12;100.00;98196.33;103920;1268;68235;-62
2024/03/24 06:13:55;;;;;;;16.20;13.50;;;;;;;11.07;100.00;98194.67;103649;1270;72555;-61
2024/03/24 06:16:23;;;;;;;16.70;14.30;;;;;;;11.01;100.00;98185.66;103084;1273;853229;-61
2024/03/24 06:18:52;;;;;;;15.40;13.70;;;;;;;11.03;100.00;98197.91;104314;1265;59760;-61
2024/03/24 06:21:20;;;;;;;16.40;14.60;;;;;;;11.00;100.00;98199.94;104052;1267;71966;-61
2024/03/24 06:23:51;;;;;;;17.00;14.50;;;;;;;11.02;100.00;98196.42;104028;1267;69728;-62
2024/03/24 06:26:20;;;;;;;15.80;14.00;;;;;;;11.04;100.00;98193.71;103986;1280;72070;-62
2024/03/24 06:28:47;;;;;;;;;;;;;;;11.04;100.00;98195.24;103800;1266;61035;-62
2024/03/24 06:31:14;;;;;;;17.80;13.30;;;;;;;11.04;100.00;98195.61;103776;1267;60576;-62
2024/03/24 06:33:42;;;;;;;17.90;13.90;;;;;;;11.12;100.00;98193.34;103893;1266;74550;-62
2024/03/24 06:36:10;;;;;;;16.70;14.00;;;;;;;11.13;100.00;98194.86;104001;1265;70270;-62
2024/03/24 06:38:37;;;;;;;16.30;14.40;;;;;;;11.10;100.00;98202.77;103555;1265;72931;-62
2024/03/24 06:41:05;;;;;;;;;;;;;;;11.11;100.00;98201.48;104144;1263;60641;-62
2024/03/24 06:43:41;;;;;;;16.80;14.50;;;;;;;11.12;100.00;98194.53;104415;1259;60714;-62
2024/03/24 06:46:09;;;;;;;20.40;13.60;;;;;;;11.15;100.00;98191.02;104140;1259;73689;-62
2024/03/24 06:48:36;;;;;;;16.20;14.40;;;;;;;11.20;100.00;98194.16;104330;1261;69234;-61
2024/03/24 06:51:04;;;;;;;17.70;13.60;;;;;;;11.28;100.00;98192.55;104578;1259;72204;-61
2024/03/24 06:53:32;;;;;;;19.20;14.50;;;;;;;11.24;100.00;98188.11;104034;1260;61635;-61
2024/03/24 06:56:00;;;;;;;18.20;13.80;;;;;;;11.28;100.00;98196.08;103939;1259;60576;-62
2024/03/24 07:00:07;;;;;;;17.40;14.60;;;;;;;10.73;100.00;98194.44;102208;1305;601404;-62
2024/03/24 07:02:37;;;;;;;17.40;14.60;;;;;;;11.29;100.00;98195.83;104364;1266;61066;-63
2024/03/24 07:05:05;;;;;;;16.40;14.60;;;;;;;11.18;100.00;98198.36;104021;1265;59698;-61
2024/03/24 07:07:33;;;;;;;;;;;;;;;11.15;100.00;98199.77;104031;1266;72816;-66
2024/03/24 07:10:00;;;;;;;19.20;13.20;;;;;;;11.27;100.00;98195.94;104275;1266;68065;-61
2024/03/24 07:12:31;;;;;;;18.00;13.90;;;;;;;11.37;100.00;98184.77;103580;1269;72527;-61
2024/03/24 07:14:59;;;;;;;;;;;;;;;11.43;100.00;98186.29;103852;1266;61888;-61
2024/03/24 07:17:27;;;;;;;16.60;13.40;;;;;;;11.43;100.00;98182.43;103971;1263;59789;-60
2024/03/24 07:19:54;;;;;;;18.10;14.70;;;;;;;11.45;100.00;98180.73;104147;1264;72716;-62
2024/03/24 07:22:21;;;;;;;15.80;14.00;;;;;;;11.45;100.00;98176.51;104072;1267;69364;-62
2024/03/24 07:24:50;;;;;;;19.70;14.10;;;;;;;11.39;100.00;98172.19;104319;1266;72387;-60
2024/03/24 07:27:18;;;;;;;16.20;13.50;;;;;;;11.40;100.00;98171.27;104420;1269;61512;-60
2024/03/24 07:29:45;;;;;;;15.00;13.30;;;;;;;11.45;100.00;98172.30;104037;1264;60572;-60
2024/03/24 07:32:13;;;;;;;15.50;13.20;;;;;;;11.49;100.00;98168.15;104470;1256;73633;-61
2024/03/24 07:34:41;;;;;;;14.80;13.10;;;;;;;11.54;100.00;98171.48;104297;1257;69348;-65
2024/03/24 07:37:09;;;;;;;15.60;14.00;;;;;;;11.55;100.00;98170.76;103997;1266;72847;-61
2024/03/24 07:39:36;;;;;;;16.20;13.90;;;;;;;11.61;100.00;98170.65;104780;1257;60700;-61
2024/03/24 07:42:04;;;;;;;16.90;14.70;;;;;;;11.65;100.00;98165.83;104907;1260;60437;-61
2024/03/24 07:44:31;;;;;;;20.50;14.60;;;;;;;11.70;100.00;98166.14;105225;1261;74524;-61
2024/03/24 07:47:03;;;;;;;;;;;;;;;11.76;100.00;98161.84;105167;1260;69413;-62
2024/03/24 07:49:34;;;;;;;17.40;14.50;;;;;;;11.84;100.00;98156.05;104367;1271;71347;-63
2024/03/24 07:52:02;;;;;;;17.20;14.30;;;;;;;11.95;100.00;98158.27;104518;1266;61824;-64
2024/03/24 07:54:29;;;;;;;16.00;14.40;;;;;;;12.07;100.00;98154.98;104683;1257;60606;-63
2024/03/24 07:56:57;;;;;;;18.30;14.40;;;;;;;12.13;100.00;98148.55;104332;1258;73196;-64
2024/03/24 07:59:24;;;;;;;17.30;13.70;;;;;;;12.19;100.00;98151.23;104402;1260;69638;-63
2024/03/24 08:01:52;;;;;;;19.10;16.10;;;;;;;12.15;100.00;98150.33;104254;1257;72951;-65
2024/03/24 08:04:20;;;;;;;17.30;15.00;;;;;;;12.16;100.00;98142.35;105138;1257;60598;-65
2024/03/24 08:06:48;;;;;;;18.30;14.30;;;;;;;12.14;100.00;98143.36;104683;1262;60460;-62
2024/03/24 08:09:16;;;;;;;19.60;14.30;;;;;;;12.17;100.00;98146.30;104644;1257;74408;-64
2024/03/24 08:11:44;;;;;;;18.70;15.20;;;;;;;12.23;100.00;98135.17;104439;1260;69780;-62
2024/03/24 08:14:11;;;;;;;;;;;;;;;12.29;100.00;98119.77;104620;1260;72778;-63
2024/03/24 08:16:39;;;;;;;18.10;14.50;;;;;;;12.40;100.00;98118.84;104168;1260;60679;-65
2024/03/24 08:19:07;;;;;;;17.50;14.80;;;;;;;12.51;100.00;98109.33;104794;1257;60558;-69
2024/03/24 08:21:36;;;;;;;;;;;;;;;12.59;100.00;98112.95;104543;1257;73779;-69
2024/03/24 08:24:04;;;;;;;19.50;15.50;;;;;;;12.66;100.00;98123.17;104449;1260;69581;-67
2024/03/24 08:26:31;;;;;;;17.20;14.40;;;;;;;12.74;100.00;98117.16;104597;1257;72514;-69
2024/03/24 08:28:59;;;;;;;19.00;14.90;;;;;;;12.79;100.00;98113.41;104857;1257;63316;-67
2024/03/24 08:31:27;;;;;;;19.30;16.60;;;;;;;12.79;100.00;98115.52;104672;1258;60530;-68
2024/03/24 08:33:55;;;;;;;18.20;15.70;;;;;;;12.77;100.00;98116.86;105288;1251;73733;-66
2024/03/24 08:36:23;;;;;;;17.00;14.90;;;;;;;12.76;100.00;98122.41;104949;1251;69747;-63
2024/03/24 08:38:52;;;;;;;41.80;28.60;;;;;;;12.66;100.00;98124.09;104770;1254;71255;-67
2024/03/24 08:41:19;;;;;;;24.30;19.10;;;;;;;12.57;100.00;98126.15;104545;1254;61032;-66
2024/03/24 08:43:47;;;;;;;18.00;16.00;;;;;;;12.56;100.00;98123.23;104783;1254;60463;-64
2024/03/24 08:46:14;;;;;;;15.90;14.20;;;;;;;12.55;100.00;98113.80;104680;1257;73622;-62
2024/03/24 08:48:42;;;;;;;16.10;14.20;;;;;;;12.30;100.00;98121.59;104822;1252;70224;-62
2024/03/24 08:51:13;;;;;;;16.20;14.40;;;;;;;12.23;100.00;98120.58;104713;1254;72812;-62
2024/03/24 08:53:41;;;;;;;17.30;15.20;;;;;;;12.23;100.00;98118.84;104898;1257;60713;-61
2024/03/24 08:56:08;;;;;;;16.00;13.20;;;;;;;12.37;100.00;98117.98;104489;1268;62570;-62
2024/03/24 08:58:36;;;;;;;15.30;13.70;;;;;;;12.28;100.00;98119.10;104914;1253;73655;-65
2024/03/24 09:01:03;;;;;;;15.30;12.80;;;;;;;12.59;100.00;98110.19;104532;1256;69204;-61
2024/03/24 09:03:31;;;;;;;17.30;14.30;;;;;;;12.71;100.00;98115.41;104415;1258;75933;-64
2024/03/24 09:05:59;;;;;;;15.40;13.20;;;;;;;12.79;100.00;98109.17;104545;1259;60613;-60
2024/03/24 09:08:27;;;;;;;;;;;;;;;12.77;100.00;98095.76;105109;1258;60488;-60
2024/03/24 09:10:54;;;;;;;19.30;15.60;;;;;;;12.77;100.00;98090.32;104660;1256;75522;-61
2024/03/24 09:13:22;;;;;;;17.60;14.40;;;;;;;12.80;100.00;98091.68;104943;1255;69716;-62
2024/03/24 09:15:49;;;;;;;16.40;14.40;;;;;;;12.87;100.00;98074.83;104515;1257;72535;-62
2024/03/24 09:18:17;;;;;;;14.90;13.50;;;;;;;12.95;100.00;98074.88;104582;1254;61589;-60
2024/03/24 09:20:45;;;;;;;18.90;14.20;;;;;;;13.01;100.00;98072.70;104609;1256;62484;-61
2024/03/24 09:23:14;;;;;;;16.00;14.30;;;;;;;13.04;100.00;98074.02;104881;1251;72641;-60
2024/03/24 09:25:42;;;;;;;18.00;13.50;;;;;;;13.09;100.00;98070.98;104812;1259;68261;-62
2024/03/24 09:28:09;;;;;;;15.50;13.10;;;;;;;13.24;100.00;98073.01;104885;1254;72830;-60
2024/03/24 09:30:37;;;;;;;15.90;14.20;;;;;;;13.35;100.00;98076.16;104503;1258;60933;-60
2024/03/24 09:33:04;;;;;;;15.60;13.20;;;;;;;13.30;100.00;98080.15;104571;1270;61727;-60
2024/03/24 09:35:32;;;;;;;18.50;13.50;;;;;;;13.27;100.00;98090.91;104291;1261;74080;-61
2024/03/24 09:38:00;;;;;;;16.00;13.20;;;;;;;13.25;100.00;98094.02;104878;1261;68535;-62
2024/03/24 09:40:28;;;;;;;16.60;13.20;;;;;;;13.19;100.00;98094.34;104993;1256;74693;-66
2024/03/24 09:42:56;;;;;;;14.10;12.60;;;;;;;13.15;100.00;98093.90;104818;1260;61679;-62
2024/03/24 09:45:24;;;;;;;;;;;;;;;13.19;100.00;98086.56;104666;1258;60669;-62
2024/03/24 09:47:51;;;;;;;;;;;;;;;13.32;100.00;98088.73;104713;1257;74737;-62
2024/03/24 09:50:19;;;;;;;15.80;13.90;;;;;;;13.30;100.00;98077.65;104516;1252;69236;-62
2024/03/24 09:52:47;;;;;;;15.30;13.60;;;;;;;13.31;100.00;98090.10;104675;1259;73151;-63
2024/03/24 09:55:16;;;;;;;15.70;13.30;;;;;;;13.29;100.00;98094.11;104355;1275;61184;-63
2024/03/24 09:57:44;;;;;;;16.20;14.50;;;;;;;13.30;100.00;98085.06;104615;1259;60542;-60
2024/03/24 10:00:16;;;;;;;18.30;16.50;;;;;;;13.33;100.00;98073.56;105032;1257;72602;-61
2024/03/24 10:02:43;;;;;;;25.30;22.70;;;;;;;13.33;100.00;98071.61;104339;1254;69276;-61
2024/03/24 10:05:11;;;;;;;;;;;;;;;13.39;100.00;98075.48;104975;1256;71670;-64
2024/03/24 10:07:39;;;;;;;17.40;14.80;;;;;;;13.50;100.00;98081.02;104825;1268;60802;-60
2024/03/24 10:10:07;;;;;;;17.10;14.70;;;;;;;13.61;100.00;98077.70;104607;1254;60488;-60
2024/03/24 10:12:35;;;;;;;17.40;13.90;;;;;;;13.55;100.00;98089.39;104312;1256;73949;-63
2024/03/24 10:15:15;;;;;;;15.50;13.60;;;;;;;13.51;100.00;98093.57;105138;1257;69305;-60
2024/03/24 10:17:43;;;;;;;16.20;13.60;;;;;;;13.54;100.00;98088.22;104911;1251;73220;-61
2024/03/24 10:20:14;;;;;;;13.70;12.30;;;;;;;13.57;100.00;98085.20;104881;1253;61493;-60
2024/03/24 10:22:53;;;;;;;17.20;13.00;;;;;;;13.61;100.00;98089.59;104808;1259;60842;-62
2024/03/24 10:25:23;;;;;;;17.40;13.50;;;;;;;13.68;100.00;98091.54;104728;1257;73831;-61
2024/03/24 10:27:51;;;;;;;14.80;12.30;;;;;;;13.74;100.00;98094.23;105090;1259;69510;-61
2024/03/24 10:30:19;;;;;;;16.40;12.70;;;;;;;13.75;100.00;98091.52;104435;1254;72906;-63
2024/03/24 10:32:47;;;;;;;17.80;14.30;;;;;;;13.79;100.00;98083.27;104599;1257;62086;-64
2024/03/24 10:35:15;;;;;;;17.10;13.70;;;;;;;13.84;100.00;98078.85;104452;1273;60556;-62
2024/03/24 10:37:43;;;;;;;16.00;13.80;;;;;;;13.93;100.00;98074.21;104593;1257;74413;-63
2024/03/24 10:40:14;;;;;;;16.50;14.00;;;;;;;13.90;100.00;98069.33;104685;1253;69201;-63
2024/03/24 10:42:42;;;;;;;21.20;15.40;;;;;;;13.85;100.00;98069.60;104671;1256;73729;-62
2024/03/24 10:45:09;;;;;;;22.20;19.00;;;;;;;13.81;100.00;98068.27;104936;1254;61677;-63
2024/03/24 10:47:37;;;;;;;26.50;18.80;;;;;;;13.87;100.00;98068.34;105422;1257;60941;-61
2024/03/24 10:50:07;;;;;;;20.70;14.80;;;;;;;13.93;100.00;98068.81;104492;1258;73593;-62
2024/03/24 10:52:35;;;;;;;16.40;13.80;;;;;;;13.89;100.00;98064.66;104741;1272;70630;-62
2024/03/24 10:55:03;;;;;;;16.30;14.00;;;;;;;13.85;100.00;98071.55;104364;1260;71858;-62
2024/03/24 10:57:34;;;;;;;15.20;12.90;;;;;;;13.82;100.00;98071.58;104547;1260;60434;-62
2024/03/24 11:00:03;;;;;;;16.00;13.50;;;;;;;13.72;100.00;98071.00;104625;1259;60392;-62
2024/03/24 11:02:31;;;;;;;16.50;13.90;;;;;;;13.78;100.00;98069.45;104652;1259;73651;-62
2024/03/24 11:04:59;;;;;;;14.90;13.30;;;;;;;13.94;100.00;98064.60;104819;1254;70151;-64
2024/03/24 11:07:28;;;;;;;13.50;12.10;;;;;;;13.98;100.00;98061.67;104596;1256;73234;-62
2024/03/24 11:09:58;;;;;;;14.70;13.20;;;;;;;13.91;100.00;98061.00;104400;1258;61687;-62
2024/03/24 11:12:25;;;;;;;15.30;13.40;;;;;;;13.87;100.00;98061.49;104384;1254;61309;-61
2024/03/24 11:14:53;;;;;;;14.90;13.40;;;;;;;13.86;100.00;98057.55;104615;1254;74860;-62
2024/03/24 11:17:21;;;;;;;14.10;12.40;;;;;;;13.94;100.00;98061.27;104904;1255;69995;-62
2024/03/24 11:19:49;;;;;;;20.70;13.20;;;;;;;13.91;100.00;98062.95;104672;1254;74082;-62
2024/03/24 11:22:36;;;;;;;13.90;12.40;;;;;;;13.99;100.00;98065.05;104762;1261;61582;-61
2024/03/24 11:25:06;;;;;;;15.00;13.20;;;;;;;14.06;100.00;98056.59;104983;1257;61452;-63
2024/03/24 11:27:38;;;;;;;14.80;12.70;;;;;;;14.05;100.00;98051.73;104810;1254;73852;-63
2024/03/24 11:30:10;;;;;;;14.90;12.40;;;;;;;14.00;100.00;98052.83;105152;1254;68670;-62
2024/03/24 11:32:55;;;;;;;14.50;12.90;;;;;;;13.98;100.00;98051.75;104510;1254;72499;-61
2024/03/24 11:35:29;;;;;;;15.00;12.80;;;;;;;14.04;100.00;98044.77;104762;1256;61459;-61
2024/03/24 11:37:58;;;;;;;14.60;12.40;;;;;;;14.09;100.00;98052.17;104809;1258;61368;-63
2024/03/24 11:40:27;;;;;;;14.60;12.90;;;;;;;14.03;100.00;98058.80;105246;1266;74707;-61
2024/03/24 11:42:58;;;;;;;14.50;13.00;;;;;;;14.03;100.00;98058.05;104532;1260;69436;-62
2024/03/24 11:45:26;;;;;;;15.80;13.70;;;;;;;14.06;100.00;98049.73;105077;1254;75353;-61
2024/03/24 11:48:30;;;;;;;15.10;11.80;;;;;;;14.10;100.00;98052.55;104948;1257;61472;-61
2024/03/24 11:51:01;;;;;;;16.10;12.60;;;;;;;14.15;100.00;98056.58;104856;1260;61404;-62
2024/03/24 11:53:29;;;;;;;15.50;13.30;;;;;;;14.19;100.00;98054.27;104838;1259;75097;-62
2024/03/24 11:56:00;;;;;;;13.90;12.50;;;;;;;14.15;100.00;98059.77;104775;1258;69533;-63
2024/03/24 11:58:28;;;;;;;16.30;12.90;;;;;;;14.07;100.00;98063.36;104571;1259;71626;-61
2024/03/24 12:00:55;;;;;;;16.00;12.10;;;;;;;14.14;100.00;98058.92;104805;1256;62168;-68
2024/03/24 12:03:23;;;;;;;15.80;12.60;;;;;;;14.17;100.00;98060.63;104549;1260;61253;-63
2024/03/24 12:05:52;;;;;;;15.50;13.40;;;;;;;14.16;100.00;98076.52;105287;1259;75354;-62
2024/03/24 12:08:21;;;;;;;16.60;12.70;;;;;;;14.11;100.00;98090.86;104427;1254;69501;-62
2024/03/24 12:10:48;;;;;;;16.60;13.50;;;;;;;14.08;100.00;98084.82;104753;1269;72459;-61
2024/03/24 12:13:15;;;;;;;14.60;12.80;;;;;;;14.03;100.00;98086.59;104643;1255;61361;-61
2024/03/24 12:15:46;;;;;;;14.40;12.90;;;;;;;14.05;100.00;98081.02;105630;1254;61320;-62
2024/03/24 12:18:14;;;;;;;15.50;13.00;;;;;;;13.95;100.00;98078.08;104714;1257;73600;-60
2024/03/24 12:20:41;;;;;;;23.90;18.20;;;;;;;13.87;100.00;98091.06;105189;1257;70453;-61
2024/03/24 12:23:09;;;;;;;19.10;15.20;;;;;;;13.72;100.00;98093.71;104717;1252;72715;-60
2024/03/24 12:25:44;;;;;;;16.50;14.10;;;;;;;13.54;100.00;98093.16;104923;1257;60338;-62
2024/03/24 12:28:16;;;;;;;15.00;13.50;;;;;;;13.40;100.00;98092.72;105358;1258;64859;-61
2024/03/24 12:30:50;;;;;;;21.00;15.00;;;;;;;13.61;100.00;98088.71;105273;1251;74436;-61
2024/03/24 12:33:19;;;;;;;24.70;19.80;;;;;;;13.61;100.00;98092.41;105747;1256;69628;-63
2024/03/24 12:35:50;;;;;;;20.10;16.20;;;;;;;13.62;100.00;98094.98;104877;1260;73479;-65
2024/03/24 12:38:17;;;;;;;21.90;16.50;;;;;;;13.63;100.00;98092.13;104845;1252;61337;-65
2024/03/24 12:40:52;;;;;;;19.50;14.90;;;;;;;13.54;100.00;98097.09;104581;1252;61353;-61
2024/03/24 12:43:28;;;;;;;20.40;15.60;;;;;;;13.47;100.00;98091.83;104368;1268;74423;-63
2024/03/24 12:45:56;;;;;;;19.70;17.10;;;;;;;13.45;100.00;98094.42;104739;1254;69557;-62
2024/03/24 12:48:28;;;;;;;45.30;28.80;;;;;;;13.44;100.00;98093.63;104504;1268;71766;-65
2024/03/24 12:50:57;;;;;;;24.50;19.20;;;;;;;13.45;100.00;98091.43;104785;1270;61791;-61
2024/03/24 12:53:27;;;;;;;22.20;18.40;;;;;;;13.42;100.00;98086.20;105171;1270;60688;-61
2024/03/24 12:56:01;;;;;;;17.70;15.80;;;;;;;13.39;100.00;98085.39;104698;1254;73845;-61
2024/03/24 12:58:39;;;;;;;24.50;19.00;;;;;;;13.35;100.00;98083.59;104676;1254;69302;-61
2024/03/24 13:01:07;;;;;;;27.90;21.40;;;;;;;13.39;100.00;98088.94;104985;1257;72454;-61
2024/03/24 13:03:35;;;;;;;;;;;;;;;13.32;100.00;98097.02;104532;1254;62536;-63
2024/03/24 13:06:03;;;;;;;24.40;21.90;;;;;;;13.25;100.00;98105.10;104809;1259;61839;-63
2024/03/24 13:08:31;;;;;;;18.80;16.80;;;;;;;13.24;100.00;98109.91;104849;1257;74137;-60
2024/03/24 13:10:58;;;;;;;21.50;18.40;;;;;;;13.14;100.00;98107.59;105137;1257;70217;-61
2024/03/24 13:13:40;;;;;;;24.30;19.90;;;;;;;13.06;100.00;98108.67;104903;1260;72180;-61
2024/03/24 13:16:08;;;;;;;21.00;17.40;;;;;;;13.04;100.00;98113.29;104387;1254;62372;-60
2024/03/24 13:19:00;;;;;;;21.30;16.70;;;;;;;13.00;100.00;98114.23;104400;1268;60768;-60
2024/03/24 13:21:31;;;;;;;19.20;15.40;;;;;;;12.94;100.00;98119.26;104475;1258;73431;-61
2024/03/24 13:23:59;;;;;;;20.10;17.30;;;;;;;12.92;100.00;98119.61;105174;1254;69517;-61
2024/03/24 13:26:30;;;;;;;17.90;16.00;;;;;;;12.92;100.00;98122.07;104994;1256;74305;-61
2024/03/24 13:28:58;;;;;;;20.80;17.30;;;;;;;12.83;100.00;98123.30;105021;1254;61233;-62
2024/03/24 13:31:25;;;;;;;63.20;49.70;;;;;;;12.77;100.00;98133.59;105037;1255;61332;-61
2024/03/24 13:33:53;;;;;;;28.70;22.40;;;;;;;12.82;100.00;98132.80;104813;1253;76179;-61
2024/03/24 13:36:30;;;;;;;6.80;6.10;;;;;;;12.77;100.00;98133.45;104631;1257;69495;-61
2024/03/24 13:38:59;;;;;;;4.50;4.00;;;;;;;12.61;100.00;98137.77;104711;1259;72476;-61
2024/03/24 13:41:44;;;;;;;;;;;;;;;12.42;100.00;98140.63;104861;1260;61408;-64
2024/03/24 13:44:20;;;;;;;8.00;7.20;;;;;;;12.25;100.00;98139.77;105234;1255;61330;-62
2024/03/24 13:46:53;;;;;;;29.00;22.40;;;;;;;12.07;100.00;98142.64;104443;1255;75896;-62
2024/03/24 13:49:20;;;;;;;20.80;16.70;;;;;;;11.94;100.00;98143.58;104846;1259;69370;-62
2024/03/24 13:51:48;;;;;;;16.00;12.80;;;;;;;11.82;100.00;98152.30;104698;1256;72774;-61
2024/03/24 13:54:15;;;;;;;7.30;6.10;;;;;;;11.79;100.00;98163.20;104581;1262;61428;-60
2024/03/24 13:56:44;;;;;;;1.80;1.50;;;;;;;11.69;100.00;98163.54;104628;1260;61270;-60
2024/03/24 13:59:12;;;;;;;2.30;1.50;;;;;;;11.56;100.00;98160.30;104768;1259;74449;-62
2024/03/24 14:01:40;;;;;;;1.40;1.30;;;;;;;11.52;100.00;98161.25;104610;1259;68150;-61
2024/03/24 14:04:07;;;;;;;1.60;1.50;;;;;;;11.43;100.00;98164.84;104296;1269;74760;-60
2024/03/24 14:06:35;;;;;;;1.60;1.50;;;;;;;11.40;100.00;98171.26;104621;1260;61246;-62
2024/03/24 14:09:02;;;;;;;2.50;1.40;;;;;;;11.32;100.00;98177.77;104883;1261;61692;-63
2024/03/24 14:11:31;;;;;;;1.90;1.20;;;;;;;11.25;100.00;98183.69;104442;1259;74456;-63
2024/03/24 14:14:11;;;;;;;1.40;1.20;;;;;;;11.19;100.00;98185.14;104719;1259;68913;-62
2024/03/24 14:16:41;;;;;;;1.40;1.30;;;;;;;11.06;100.00;98184.62;104648;1259;72749;-61
2024/03/24 14:19:31;;;;;;;1.00;0.90;;;;;;;10.99;100.00;98187.85;104583;1257;61362;-61
2024/03/24 14:22:20;;;;;;;1.90;1.50;;;;;;;10.97;100.00;98175.92;104611;1260;60784;-62
2024/03/24 14:24:50;;;;;;;1.30;1.00;;;;;;;11.01;100.00;98175.48;104640;1269;74641;-62
2024/03/24 14:27:18;;;;;;;2.70;1.40;;;;;;;10.99;100.00;98180.50;105022;1257;69673;-62
2024/03/24 14:29:45;;;;;;;2.30;1.30;;;;;;;11.02;100.00;98194.86;104689;1272;71800;-61
2024/03/24 14:32:14;;;;;;;1.50;1.40;;;;;;;11.00;100.00;98204.16;105068;1259;61380;-62
2024/03/24 14:34:41;;;;;;;1.70;1.60;;;;;;;10.97;100.00;98206.95;104397;1254;61300;-62
2024/03/24 14:37:14;;;;;;;2.90;2.20;;;;;;;10.97;100.00;98205.39;105225;1257;75432;-62
2024/03/24 14:40:19;;;;;;;2.20;2.00;;;;;;;10.93;100.00;98203.50;104951;1251;70437;-61
2024/03/24 14:43:03;;;;;;;1.70;1.50;;;;;;;10.96;100.00;98209.31;104818;1260;71480;-62
2024/03/24 14:45:48;;;;;;;1.90;1.70;;;;;;;10.95;100.00;98209.38;104420;1254;61346;-61
2024/03/24 14:48:28;;;;;;;1.90;1.60;;;;;;;10.97;100.00;98203.13;104587;1252;61263;-61
2024/03/24 14:50:55;;;;;;;2.50;1.70;;;;;;;10.97;100.00;98192.95;104446;1260;75525;-62
2024/03/24 14:53:23;;;;;;;2.60;2.30;;;;;;;10.97;100.00;98196.23;104605;1261;69228;-61
2024/03/24 14:55:50;;;;;;;2.30;2.10;;;;;;;11.01;100.00;98197.44;104507;1262;73549;-62
2024/03/24 14:58:19;;;;;;;2.90;2.70;;;;;;;11.04;100.00;98197.21;104360;1255;61371;-61
2024/03/24 15:00:49;;;;;;;2.90;2.50;;;;;;;11.02;100.00;98195.94;104669;1257;61249;-63
2024/03/24 15:03:17;;;;;;;2.80;2.40;;;;;;;11.11;100.00;98208.46;105193;1254;74495;-64
2024/03/24 15:05:45;;;;;;;2.00;1.80;;;;;;;11.12;100.00;98214.89;104429;1272;69711;-61
2024/03/24 15:08:13;;;;;;;2.00;1.60;;;;;;;10.98;100.00;98214.79;104635;1258;74768;-62
2024/03/24 15:10:40;;;;;;;2.60;2.20;;;;;;;10.99;100.00;98230.67;105542;1257;61339;-62
2024/03/24 15:13:08;;;;;;;2.30;2.10;;;;;;;10.92;100.00;98237.30;104352;1257;61252;-61
2024/03/24 15:15:37;;;;;;;2.10;1.90;;;;;;;10.96;100.00;98244.54;104617;1257;77628;-61
2024/03/24 15:18:05;;;;;;;2.30;2.10;;;;;;;10.97;100.00;98242.17;105002;1257;70909;-62
2024/03/24 15:20:33;;;;;;;2.40;2.20;;;;;;;10.99;100.00;98235.77;104881;1259;72419;-62
2024/03/24 15:23:00;;;;;;;2.80;2.10;;;;;;;10.99;100.00;98228.59;104310;1257;61290;-61
2024/03/24 15:25:28;;;;;;;2.20;2.00;;;;;;;11.04;100.00;98233.98;104319;1265;62226;-62
2024/03/24 15:27:55;;;;;;;2.30;2.00;;;;;;;11.01;100.00;98241.94;104801;1255;74796;-62
2024/03/24 15:30:23;;;;;;;1.30;1.20;;;;;;;10.98;100.00;98248.27;104661;1257;69832;-62
2024/03/24 15:32:51;;;;;;;1.80;1.40;;;;;;;10.91;100.00;98247.80;104402;1259;72835;-62
2024/03/24 15:35:19;;;;;;;10.80;5.90;;;;;;;10.80;100.00;98255.61;104562;1270;64098;-62
2024/03/24 15:37:47;;;;;;;12.40;7.90;;;;;;;10.73;100.00;98265.30;104695;1256;61310;-61
2024/03/24 15:40:14;;;;;;;4.30;3.20;;;;;;;10.70;100.00;98275.14;105096;1259;75912;-62
2024/03/24 15:42:43;;;;;;;2.40;2.00;;;;;;;10.62;100.00;98283.92;104482;1257;69673;-60
2024/03/24 15:45:11;;;;;;;5.00;3.90;;;;;;;10.60;100.00;98288.05;105368;1256;74935;-61
2024/03/24 15:47:38;;;;;;;4.80;4.30;;;;;;;10.54;100.00;98284.80;104764;1270;61449;-62
2024/03/24 15:50:07;;;;;;;3.80;3.50;;;;;;;10.53;100.00;98287.68;105172;1257;61377;-62
2024/03/24 15:52:35;;;;;;;5.30;4.10;;;;;;;10.54;100.00;98293.89;104603;1259;74417;-62
2024/03/24 15:55:03;;;;;;;4.50;4.00;;;;;;;10.46;100.00;98295.99;104799;1272;69643;-63
2024/03/24 15:58:05;;;;;;;4.50;4.10;;;;;;;10.41;100.00;98291.58;104559;1259;71409;-61
2024/03/24 16:00:43;;;;;;;2.40;2.20;;;;;;;10.34;100.00;98296.89;104769;1256;61211;-61